Time;durP1;ratioP1;P1;durP2;ratioP2;P2;SDS_P1;SDS_P2;PMS_P1;PMS_P2;Temp;Humidity;BMP_temperature;BMP_pressure;BME280_temperature;BME280_humidity;BME280_pressure;Samples;Min_cycle;Max_cycle;Signal;HPM_P1;HPM_P2
2021/12/25 00:00:48;;;;;;;30.40;15.43;;;;;;;5.13;100.00;100523.03;5019318;28;20030;-45
2021/12/25 00:03:15;;;;;;;26.88;14.25;;;;;;;5.13;100.00;100517.75;5019003;28;20408;-47
2021/12/25 00:05:41;;;;;;;30.60;15.63;;;;;;;5.12;100.00;100508.09;5019202;28;20586;-45
2021/12/25 00:08:06;;;;;;;30.25;16.25;;;;;;;5.10;100.00;100510.88;5018553;28;20025;-45
2021/12/25 00:10:32;;;;;;;31.60;16.30;;;;;;;5.08;100.00;100515.47;5035385;28;20029;-47
2021/12/25 00:12:58;;;;;;;31.13;16.23;;;;;;;5.05;100.00;100505.16;5037323;28;20427;-45
2021/12/25 00:15:23;;;;;;;29.00;15.25;;;;;;;5.03;100.00;100497.34;5026061;28;20018;-48
2021/12/25 00:17:48;;;;;;;33.45;16.80;;;;;;;5.05;100.00;100506.00;5016581;28;20398;-46
2021/12/25 00:20:14;;;;;;;34.67;17.52;;;;;;;5.02;100.00;100501.00;5027434;28;20373;-47
2021/12/25 00:22:40;;;;;;;34.25;17.23;;;;;;;4.99;100.00;100503.91;5036784;28;20105;-47
2021/12/25 00:25:06;;;;;;;35.15;16.92;;;;;;;5.00;100.00;100516.13;5027823;28;20122;-46
2021/12/25 00:27:49;;;;;;;28.95;15.82;;;;;;;5.00;100.00;100515.31;5036336;28;20033;-47
2021/12/25 00:30:31;;;;;;;31.30;16.00;;;;;;;5.00;100.00;100515.31;5022752;28;20104;-44
2021/12/25 00:33:02;;;;;;;29.48;15.77;;;;;;;4.99;100.00;100513.63;5037358;28;20032;-49
2021/12/25 00:35:28;;;;;;;29.27;14.68;;;;;;;4.97;100.00;100513.78;5037217;28;20044;-46
2021/12/25 00:37:54;;;;;;;31.48;14.57;;;;;;;4.97;100.00;100515.56;5036985;28;20052;-47
2021/12/25 00:40:20;;;;;;;26.98;13.88;;;;;;;4.97;100.00;100505.84;5038435;28;20102;-48
2021/12/25 00:42:45;;;;;;;31.88;15.23;;;;;;;4.98;100.00;100498.72;5036843;28;20392;-44
2021/12/25 00:45:12;;;;;;;30.10;14.75;;;;;;;4.96;100.00;100493.56;5038476;28;20465;-44
2021/12/25 00:47:38;;;;;;;30.25;14.82;;;;;;;4.95;100.00;100502.47;5024600;28;20025;-46
2021/12/25 00:50:04;;;;;;;26.95;14.23;;;;;;;4.93;100.00;100499.13;5017425;28;20025;-44
2021/12/25 00:52:29;;;;;;;25.77;13.50;;;;;;;4.91;100.00;100502.88;5017007;28;20662;-43
2021/12/25 00:54:54;;;;;;;26.02;13.63;;;;;;;4.86;100.00;100501.47;5018813;28;20053;-45
2021/12/25 00:57:20;;;;;;;26.70;13.85;;;;;;;4.86;100.00;100511.22;5017550;28;20069;-46
2021/12/25 00:59:45;;;;;;;26.70;13.52;;;;;;;4.81;100.00;100501.03;5017653;28;20359;-44
2021/12/25 01:02:10;;;;;;;28.48;13.65;;;;;;;4.78;100.00;100505.75;5020152;28;20078;-43
2021/12/25 01:04:35;;;;;;;26.20;13.25;;;;;;;4.75;100.00;100501.56;5020844;28;20430;-45
2021/12/25 01:07:01;;;;;;;25.25;12.90;;;;;;;4.70;100.00;100502.91;5022083;28;20439;-45
2021/12/25 01:09:27;;;;;;;28.10;13.80;;;;;;;4.66;100.00;100513.75;5021780;28;20030;-44
2021/12/25 01:11:53;;;;;;;28.08;13.73;;;;;;;4.67;100.00;100512.78;5022317;28;20037;-43
2021/12/25 01:14:28;;;;;;;27.98;14.45;;;;;;;4.67;100.00;100517.25;5021025;28;20124;-44
2021/12/25 01:27:35;;;;;;;33.53;15.95;;;;;;;4.75;100.00;100520.09;5021577;28;20103;-45
2021/12/25 01:30:13;;;;;;;36.10;17.02;;;;;;;4.77;100.00;100515.50;5022125;28;20121;-45
2021/12/25 01:38:22;;;;;;;39.47;19.48;;;;;;;4.78;100.00;100509.22;5020105;28;20643;-46
2021/12/25 01:41:53;;;;;;;37.03;18.67;;;;;;;4.76;100.00;100511.16;5020935;28;20034;-46
2021/12/25 01:49:04;;;;;;;38.58;20.23;;;;;;;4.61;100.00;100515.13;5021092;28;20048;-47
2021/12/25 01:51:29;;;;;;;36.60;19.15;;;;;;;4.59;100.00;100515.25;5019959;28;20025;-43
2021/12/25 01:53:55;;;;;;;38.47;20.35;;;;;;;4.55;100.00;100505.91;5021110;28;20040;-44
2021/12/25 01:56:20;;;;;;;41.25;20.33;;;;;;;4.54;100.00;100504.22;5021182;28;20058;-45
2021/12/25 01:58:46;;;;;;;37.20;19.75;;;;;;;4.56;100.00;100515.50;5028604;28;20037;-47
2021/12/25 02:01:11;;;;;;;37.65;19.17;;;;;;;4.56;100.00;100512.84;5041118;28;20106;-44
2021/12/25 02:03:38;;;;;;;36.85;18.48;;;;;;;4.54;100.00;100506.88;5040333;28;20028;-46
2021/12/25 02:06:08;;;;;;;41.88;21.08;;;;;;;4.54;100.00;100498.94;5040049;28;20574;-47
2021/12/25 02:08:33;;;;;;;39.70;20.52;;;;;;;4.51;100.00;100501.00;5039348;28;20280;-46
2021/12/25 02:10:59;;;;;;;37.15;19.13;;;;;;;4.51;100.00;100504.47;5040630;28;20439;-47
2021/12/25 02:13:25;;;;;;;40.03;20.15;;;;;;;4.51;100.00;100499.19;5021286;28;20366;-47
2021/12/25 02:15:53;;;;;;;42.00;21.52;;;;;;;4.49;100.00;100501.13;5020716;28;20037;-48
2021/12/25 02:18:28;;;;;;;40.20;19.88;;;;;;;4.47;100.00;100506.53;5019460;28;20040;-44
2021/12/25 02:21:02;;;;;;;39.55;19.80;;;;;;;4.48;100.00;100499.44;5020790;28;20345;-48
2021/12/25 02:23:30;;;;;;;37.72;17.48;;;;;;;4.37;100.00;100502.19;5020102;28;20021;-45
2021/12/25 02:25:56;;;;;;;32.75;17.02;;;;;;;4.29;100.00;100511.59;5021156;28;20017;-44
2021/12/25 02:28:24;;;;;;;31.23;16.60;;;;;;;4.28;100.00;100509.09;5018650;28;20492;-45
2021/12/25 02:30:52;;;;;;;33.35;17.30;;;;;;;4.19;100.00;100510.69;5020816;28;20185;-43
2021/12/25 02:33:17;;;;;;;31.42;16.33;;;;;;;4.18;100.00;100510.81;5020001;28;20438;-46
2021/12/25 02:35:45;;;;;;;33.17;17.00;;;;;;;4.16;100.00;100510.94;5019190;28;20141;-46
2021/12/25 02:38:10;;;;;;;31.02;15.88;;;;;;;4.15;100.00;100506.63;5019616;28;20104;-48
2021/12/25 02:40:35;;;;;;;29.73;15.35;;;;;;;4.13;100.00;100507.72;5019470;28;20026;-44
2021/12/25 02:43:01;;;;;;;29.17;15.43;;;;;;;4.10;100.00;100511.44;5018466;28;20113;-50
2021/12/25 02:45:26;;;;;;;28.60;14.30;;;;;;;4.07;100.00;100501.13;5035584;28;20029;-48
2021/12/25 02:47:55;;;;;;;29.85;14.48;;;;;;;4.02;100.00;100517.38;5036281;28;20320;-49
2021/12/25 02:50:30;;;;;;;29.25;14.90;;;;;;;4.00;100.00;100516.63;5039623;28;20064;-45
2021/12/25 02:52:58;;;;;;;27.08;14.07;;;;;;;3.98;100.00;100513.28;5038998;28;20025;-44
2021/12/25 02:55:24;;;;;;;27.48;14.50;;;;;;;3.96;100.00;100511.75;5040341;28;20062;-46
2021/12/25 02:57:51;;;;;;;28.45;13.75;;;;;;;3.91;100.00;100514.78;5037916;28;20097;-49
2021/12/25 03:00:22;;;;;;;27.17;13.75;;;;;;;3.86;100.00;100516.97;5040218;28;20086;-46
2021/12/25 03:02:47;;;;;;;30.92;14.68;;;;;;;3.83;100.00;100518.03;5035218;28;20143;-47
2021/12/25 03:05:13;;;;;;;34.33;14.60;;;;;;;3.80;100.00;100517.44;5035778;28;20111;-48
2021/12/25 03:07:38;;;;;;;35.58;15.43;;;;;;;3.75;100.00;100523.09;5038703;28;20029;-45
2021/12/25 03:10:05;;;;;;;34.35;15.15;;;;;;;3.69;100.00;100516.53;5039961;28;20104;-45
2021/12/25 03:12:37;;;;;;;30.30;15.40;;;;;;;3.66;100.00;100524.69;5038175;28;20583;-46
2021/12/25 03:15:13;;;;;;;32.70;16.00;;;;;;;3.63;100.00;100522.31;5039797;28;20029;-44
2021/12/25 03:17:39;;;;;;;32.97;15.98;;;;;;;3.63;100.00;100530.25;5039736;28;20033;-44
2021/12/25 03:20:07;;;;;;;31.20;15.40;;;;;;;3.60;100.00;100533.13;5039491;28;20436;-45
2021/12/25 03:22:33;;;;;;;33.88;16.38;;;;;;;3.55;100.00;100536.13;5034782;28;20033;-45
2021/12/25 03:24:58;;;;;;;31.50;15.55;;;;;;;3.51;100.00;100532.06;5038834;28;20456;-47
2021/12/25 03:27:23;;;;;;;30.48;15.38;;;;;;;3.47;100.00;100538.53;5039169;28;20086;-43
2021/12/25 03:29:49;;;;;;;32.92;16.58;;;;;;;3.44;100.00;100541.41;5039251;28;20104;-45
2021/12/25 03:32:14;;;;;;;32.75;16.50;;;;;;;3.40;100.00;100540.00;5039842;28;20043;-45
2021/12/25 03:34:40;;;;;;;31.30;16.52;;;;;;;3.38;100.00;100551.63;5038646;28;20473;-46
2021/12/25 03:37:05;;;;;;;32.40;16.92;;;;;;;3.31;100.00;100544.22;5035173;28;20049;-43
2021/12/25 03:39:30;;;;;;;31.67;16.48;;;;;;;3.27;100.00;100547.19;5021856;28;20033;-48
2021/12/25 03:41:58;;;;;;;31.08;15.68;;;;;;;3.21;100.00;100551.19;5038830;28;20033;-46
2021/12/25 03:44:24;;;;;;;31.00;15.90;;;;;;;3.22;100.00;100560.75;5039549;28;20159;-45
2021/12/25 03:46:50;;;;;;;31.85;15.40;;;;;;;3.18;100.00;100554.06;5037393;28;20079;-45
2021/12/25 03:49:45;;;;;;;33.05;16.33;;;;;;;3.17;100.00;100562.91;5039012;28;20033;-49
2021/12/25 03:57:42;;;;;;;31.35;15.95;;;;;;;3.12;100.00;100559.78;5029429;28;20571;-44
2021/12/25 04:00:12;;;;;;;33.40;16.73;;;;;;;3.08;100.00;100564.47;5019389;28;20017;-48
2021/12/25 04:02:50;;;;;;;35.58;16.77;;;;;;;3.06;100.00;100563.75;5018311;28;20036;-46
2021/12/25 04:05:18;;;;;;;32.17;16.60;;;;;;;3.05;100.00;100571.78;5034027;28;20421;-46
2021/12/25 04:07:59;;;;;;;35.25;18.15;;;;;;;3.01;100.00;100570.38;5018214;28;20489;-46
2021/12/25 04:10:26;;;;;;;35.20;18.13;;;;;;;2.94;100.00;100570.81;5019438;28;20469;-50
2021/12/25 04:12:51;;;;;;;33.22;16.50;;;;;;;2.91;100.00;100573.69;5018069;28;20267;-49
2021/12/25 04:15:16;;;;;;;33.75;17.48;;;;;;;2.88;100.00;100584.47;5019903;28;20053;-45
2021/12/25 04:17:41;;;;;;;35.08;18.05;;;;;;;2.88;100.00;100581.00;5017207;28;20457;-46
2021/12/25 04:20:08;;;;;;;38.42;20.17;;;;;;;2.85;100.00;100591.78;5019801;28;20030;-49
2021/12/25 04:22:43;;;;;;;37.67;20.50;;;;;;;2.78;100.00;100583.50;5016496;28;20108;-47
2021/12/25 04:25:09;;;;;;;36.33;19.65;;;;;;;2.76;100.00;100595.97;5019372;28;20021;-48
2021/12/25 04:27:34;;;;;;;40.10;19.73;;;;;;;2.75;100.00;100602.19;5032890;28;20024;-45
2021/12/25 04:30:17;;;;;;;36.22;18.90;;;;;;;2.72;100.00;100597.19;5039411;28;20041;-47
2021/12/25 05:05:11;;;;;;;34.75;17.67;;;;;;;2.32;100.00;100622.06;4996641;28;20484;-45
2021/12/25 05:07:36;;;;;;;;;;;;;;;2.34;100.00;100627.22;5030147;28;20119;-49
2021/12/25 05:10:02;;;;;;;34.55;17.33;;;;;;;2.29;100.00;100627.59;5039162;28;19921;-48
2021/12/25 05:12:27;;;;;;;34.63;17.88;;;;;;;2.24;100.00;100627.94;5021140;28;20026;-44
2021/12/25 05:14:52;;;;;;;36.30;18.85;;;;;;;2.21;100.00;100630.78;5018355;28;20033;-46
2021/12/25 05:17:18;;;;;;;34.90;17.67;;;;;;;2.17;100.00;100633.75;5037905;28;20028;-45
2021/12/25 05:19:43;;;;;;;33.08;16.75;;;;;;;2.13;100.00;100633.13;5027931;28;20025;-46
2021/12/25 05:22:10;;;;;;;31.65;16.77;;;;;;;2.13;100.00;100632.28;5019315;28;20026;-47
2021/12/25 05:24:35;;;;;;;32.85;17.27;;;;;;;2.10;100.00;100635.97;5017295;28;20358;-47
2021/12/25 05:27:00;;;;;;;34.75;17.98;;;;;;;2.06;100.00;100634.53;5032179;28;20028;-46
2021/12/25 05:29:26;;;;;;;34.83;17.92;;;;;;;2.02;100.00;100639.19;5036284;28;20199;-47
2021/12/25 05:31:52;;;;;;;31.63;17.70;;;;;;;1.99;100.00;100642.03;5032981;28;20400;-46
2021/12/25 05:34:18;;;;;;;34.50;17.65;;;;;;;1.97;100.00;100650.97;5035532;28;20094;-47
2021/12/25 05:36:43;;;;;;;30.90;16.85;;;;;;;1.93;100.00;100644.28;5027020;28;20065;-46
2021/12/25 05:39:12;;;;;;;33.50;17.80;;;;;;;1.93;100.00;100652.16;5035211;28;20116;-46
2021/12/25 05:41:37;;;;;;;33.55;17.58;;;;;;;1.90;100.00;100658.50;5016641;28;20154;-45
2021/12/25 05:44:03;;;;;;;36.70;17.90;;;;;;;1.89;100.00;100655.97;5019615;28;20095;-46
2021/12/25 05:46:28;;;;;;;33.40;17.60;;;;;;;1.87;100.00;100653.47;5034063;28;20073;-45
2021/12/25 05:48:54;;;;;;;33.85;18.08;;;;;;;1.88;100.00;100656.91;5024415;28;20026;-45
2021/12/25 05:51:20;;;;;;;31.48;17.10;;;;;;;1.89;100.00;100653.34;5027088;28;20017;-44
2021/12/25 05:53:46;;;;;;;35.35;17.52;;;;;;;1.91;100.00;100657.53;5041308;28;20478;-47
2021/12/25 05:56:11;;;;;;;31.25;16.55;;;;;;;1.86;100.00;100657.88;5030847;28;20369;-44
2021/12/25 05:58:36;;;;;;;37.25;18.08;;;;;;;1.86;100.00;100659.66;5038529;28;20111;-49
2021/12/25 06:01:04;;;;;;;34.72;17.50;;;;;;;1.82;100.00;100661.69;5041699;28;20032;-45
2021/12/25 06:03:29;;;;;;;32.28;17.48;;;;;;;1.82;100.00;100663.47;5040635;28;20032;-44
2021/12/25 06:05:57;;;;;;;34.08;18.67;;;;;;;1.80;100.00;100666.22;5041381;28;20025;-50
2021/12/25 06:08:23;;;;;;;32.63;17.65;;;;;;;1.76;100.00;100669.16;5041265;28;20028;-48
2021/12/25 06:10:48;;;;;;;32.92;16.40;;;;;;;1.72;100.00;100673.81;5041292;28;20029;-45
2021/12/25 06:13:18;;;;;;;36.95;17.33;;;;;;;1.70;100.00;100670.44;5040598;28;20025;-44
2021/12/25 06:15:43;;;;;;;35.33;17.30;;;;;;;1.65;100.00;100675.19;5040953;28;20051;-44
2021/12/25 06:18:10;;;;;;;30.45;16.45;;;;;;;1.61;100.00;100679.84;5026192;28;20021;-45
2021/12/25 06:20:36;;;;;;;33.30;16.13;;;;;;;1.50;100.00;100666.56;5021024;28;20029;-46
2021/12/25 06:23:02;;;;;;;30.45;16.10;;;;;;;1.51;100.00;100675.31;5020722;28;20060;-46
2021/12/25 06:25:28;;;;;;;29.75;15.88;;;;;;;1.51;100.00;100683.19;5020696;28;20056;-46
2021/12/25 06:27:53;;;;;;;34.15;16.60;;;;;;;1.47;100.00;100680.78;5020514;28;20513;-46
2021/12/25 06:30:19;;;;;;;30.30;15.48;;;;;;;1.44;100.00;100681.00;5021264;28;20052;-46
2021/12/25 06:32:44;;;;;;;31.23;15.77;;;;;;;1.42;100.00;100680.25;5020332;28;20034;-48
2021/12/25 06:35:10;;;;;;;32.53;16.08;;;;;;;1.42;100.00;100685.53;5021547;28;20053;-47
2021/12/25 06:37:36;;;;;;;30.35;15.45;;;;;;;1.38;100.00;100686.69;5019507;28;20045;-47
2021/12/25 06:40:02;;;;;;;29.77;14.60;;;;;;;1.35;100.00;100684.25;5020978;28;20450;-44
2021/12/25 06:42:27;;;;;;;29.80;14.70;;;;;;;1.35;100.00;100691.31;5020085;28;20021;-46
2021/12/25 06:44:55;;;;;;;29.67;15.15;;;;;;;1.28;100.00;100690.91;5021480;28;20061;-48
2021/12/25 06:47:20;;;;;;;30.92;14.57;;;;;;;1.25;100.00;100699.00;5021020;28;20057;-45
2021/12/25 06:49:45;;;;;;;28.50;13.82;;;;;;;1.21;100.00;100687.84;5020125;28;20068;-46
2021/12/25 06:52:10;;;;;;;19.90;11.05;;;;;;;1.25;100.00;100701.63;5034413;28;20390;-47
2021/12/25 06:54:36;;;;;;;27.05;14.20;;;;;;;1.18;100.00;100703.00;5039565;28;20086;-45
2021/12/25 06:57:02;;;;;;;23.73;13.40;;;;;;;1.18;100.00;100703.84;5039451;28;20178;-48
2021/12/25 06:59:28;;;;;;;26.58;12.68;;;;;;;1.16;100.00;100708.38;5035170;28;20447;-44
2021/12/25 07:01:54;;;;;;;21.63;12.45;;;;;;;1.16;100.00;100705.72;5020067;28;20116;-46
2021/12/25 07:04:19;;;;;;;22.17;11.98;;;;;;;1.17;100.00;100706.56;5019778;28;20104;-49
2021/12/25 07:06:44;;;;;;;24.30;12.25;;;;;;;1.14;100.00;100712.03;5031162;28;20029;-46
2021/12/25 07:09:09;;;;;;;19.90;13.55;;;;;;;1.04;100.00;100714.47;5028458;28;20477;-45
2021/12/25 07:11:36;;;;;;;21.35;11.63;;;;;;;1.05;100.00;100714.34;5033010;28;20028;-44
2021/12/25 07:14:04;;;;;;;22.45;11.45;;;;;;;0.99;100.00;100719.19;5039770;28;20115;-44
2021/12/25 07:16:31;;;;;;;20.75;10.88;;;;;;;0.91;100.00;100728.41;5028260;28;20021;-46
2021/12/25 07:18:56;;;;;;;19.13;9.88;;;;;;;0.93;100.00;100736.19;5039067;28;20374;-45
2021/12/25 07:21:22;;;;;;;15.52;9.25;;;;;;;0.86;100.00;100733.13;5039797;28;20048;-44
2021/12/25 07:23:47;;;;;;;18.58;9.60;;;;;;;0.84;100.00;100736.81;5039772;28;20047;-45
2021/12/25 07:26:12;;;;;;;16.95;8.50;;;;;;;0.82;100.00;100752.69;5033767;28;20337;-44
2021/12/25 07:28:38;;;;;;;13.20;7.70;;;;;;;0.76;100.00;100741.72;5019735;28;20116;-45
2021/12/25 07:31:04;;;;;;;13.77;7.45;;;;;;;0.73;100.00;100745.38;5020290;28;20040;-45
2021/12/25 07:33:31;;;;;;;11.82;7.65;;;;;;;0.67;100.00;100757.16;5024507;28;20043;-45
2021/12/25 07:35:57;;;;;;;12.45;6.97;;;;;;;0.63;100.00;100750.41;5033662;28;20059;-47
2021/12/25 07:38:23;;;;;;;12.70;6.78;;;;;;;0.61;100.00;100754.94;5019595;28;20029;-46
2021/12/25 07:40:49;;;;;;;13.10;6.72;;;;;;;0.55;100.00;100758.78;5019752;28;20025;-45
2021/12/25 07:43:15;;;;;;;12.18;6.63;;;;;;;0.53;100.00;100754.56;5019023;28;20037;-45
2021/12/25 07:45:41;;;;;;;14.02;7.15;;;;;;;0.55;100.00;100757.94;5019566;28;20025;-46
2021/12/25 07:48:06;;;;;;;11.73;7.22;;;;;;;0.51;100.00;100757.31;5029313;28;20112;-48
2021/12/25 07:50:33;;;;;;;12.10;6.80;;;;;;;0.46;100.00;100761.16;5039293;28;20043;-46
2021/12/25 07:52:59;;;;;;;10.38;6.63;;;;;;;0.42;100.00;100760.50;5039251;28;20033;-47
2021/12/25 07:55:29;;;;;;;12.70;6.60;;;;;;;0.38;100.00;100769.53;5039549;28;20029;-46
2021/12/25 07:57:58;;;;;;;13.23;7.38;;;;;;;0.36;100.00;100768.78;5039121;28;20504;-44
2021/12/25 08:00:24;;;;;;;12.30;6.43;;;;;;;0.35;100.00;100772.34;5040072;28;20245;-45
2021/12/25 08:02:50;;;;;;;13.15;7.20;;;;;;;0.35;100.00;100773.19;5038618;28;20028;-48
2021/12/25 08:05:15;;;;;;;12.20;6.90;;;;;;;0.36;100.00;100777.50;5027641;28;20029;-47
2021/12/25 08:07:41;;;;;;;12.20;6.85;;;;;;;0.36;100.00;100788.00;5018192;28;20029;-47
2021/12/25 08:10:14;;;;;;;10.13;6.82;;;;;;;0.38;100.00;100781.84;5023800;28;20028;-49
2021/12/25 08:12:48;;;;;;;11.65;7.05;;;;;;;0.33;100.00;100790.84;5026109;28;20033;-45
2021/12/25 08:15:16;;;;;;;9.82;6.68;;;;;;;0.34;100.00;100782.03;5026688;28;20392;-47
2021/12/25 08:17:42;;;;;;;10.07;6.85;;;;;;;0.34;100.00;100789.91;5033788;28;20029;-46
2021/12/25 08:20:09;;;;;;;11.60;7.43;;;;;;;0.29;100.00;100788.47;5036446;28;20020;-44
2021/12/25 08:22:35;;;;;;;10.45;6.90;;;;;;;0.28;100.00;100784.19;5032930;28;20116;-47
2021/12/25 08:25:00;;;;;;;10.90;7.53;;;;;;;0.27;100.00;100790.38;5024190;28;20043;-46
2021/12/25 08:27:26;;;;;;;13.02;7.55;;;;;;;0.28;100.00;100790.28;5031110;28;20031;-46
2021/12/25 08:29:51;;;;;;;12.00;7.20;;;;;;;0.27;100.00;100803.50;5032296;28;20339;-48
2021/12/25 08:32:17;;;;;;;12.57;7.50;;;;;;;0.21;100.00;100807.38;5020345;28;20217;-44
2021/12/25 08:34:43;;;;;;;12.60;7.10;;;;;;;0.24;100.00;100801.06;5019584;28;20496;-48
2021/12/25 08:37:10;;;;;;;9.40;6.65;;;;;;;0.27;100.00;100816.63;5033229;28;20064;-44
2021/12/25 08:39:35;;;;;;;13.32;7.28;;;;;;;0.27;100.00;100816.63;5023971;28;20025;-43
2021/12/25 08:42:03;;;;;;;13.02;7.57;;;;;;;0.23;100.00;100815.16;5030737;28;20240;-45
2021/12/25 08:44:41;;;;;;;11.10;7.25;;;;;;;0.30;100.00;100816.44;5038815;28;20025;-45
2021/12/25 08:47:11;;;;;;;12.35;6.97;;;;;;;0.27;100.00;100828.00;5038777;28;20021;-44
2021/12/25 08:49:39;;;;;;;13.48;7.25;;;;;;;0.21;100.00;100817.88;5037248;28;20412;-45
2021/12/25 08:52:11;;;;;;;13.55;7.07;;;;;;;0.22;100.00;100837.09;5037868;28;20029;-46
2021/12/25 08:54:37;;;;;;;11.10;6.97;;;;;;;0.24;100.00;100832.56;5038187;28;20110;-48
2021/12/25 08:57:04;;;;;;;12.48;7.05;;;;;;;0.21;100.00;100825.75;5019253;28;20026;-45
2021/12/25 08:59:29;;;;;;;9.93;6.78;;;;;;;0.21;100.00;100840.66;5018433;28;20049;-48
2021/12/25 09:01:57;;;;;;;11.98;6.95;;;;;;;0.22;100.00;100832.69;5019303;28;20486;-44
2021/12/25 09:04:23;;;;;;;14.65;6.88;;;;;;;0.20;100.00;100845.06;5019989;28;20022;-46
2021/12/25 09:06:48;;;;;;;12.32;6.72;;;;;;;0.17;100.00;100840.00;5017771;28;20119;-47
2021/12/25 09:09:13;;;;;;;12.43;6.93;;;;;;;0.16;100.00;100843.56;5018568;28;20032;-43
2021/12/25 09:11:40;;;;;;;10.38;6.78;;;;;;;0.15;100.00;100850.63;5016173;28;20146;-45
2021/12/25 09:14:06;;;;;;;9.93;6.35;;;;;;;0.14;100.00;100856.78;5029242;28;20362;-50
2021/12/25 09:16:31;;;;;;;14.85;6.93;;;;;;;0.08;100.00;100858.94;5037624;28;20047;-49
2021/12/25 09:18:57;;;;;;;11.48;7.18;;;;;;;0.07;100.00;100865.13;5037560;28;20025;-46
2021/12/25 09:21:22;;;;;;;28.15;15.40;;;;;;;0.02;100.00;100859.31;5037698;28;20068;-44
2021/12/25 09:23:48;;;;;;;22.27;12.07;;;;;;;-0.01;100.00;100853.31;5039870;28;20037;-46
2021/12/25 09:26:13;;;;;;;17.30;7.30;;;;;;;-0.02;100.00;100861.28;5041366;28;20029;-48
2021/12/25 09:28:38;;;;;;;34.97;14.65;;;;;;;-0.02;100.00;100863.91;5023061;28;20394;-46
2021/12/25 09:31:04;;;;;;;120.93;33.20;;;;;;;0.00;100.00;100864.69;5037776;28;20438;-46
2021/12/25 09:33:30;;;;;;;16.58;8.52;;;;;;;0.03;100.00;100853.13;5041231;28;20029;-47
2021/12/25 09:35:57;;;;;;;67.75;21.50;;;;;;;0.04;100.00;100844.31;5040348;28;20056;-46
2021/12/25 09:38:22;;;;;;;21.63;10.43;;;;;;;0.05;100.00;100853.88;5028188;28;20382;-46
2021/12/25 09:40:48;;;;;;;22.60;10.60;;;;;;;0.06;100.00;100858.19;5036334;28;20040;-45
2021/12/25 09:43:17;;;;;;;16.25;10.45;;;;;;;0.10;100.00;100854.44;5033652;28;20200;-47
2021/12/25 09:45:42;;;;;;;19.67;11.57;;;;;;;0.10;100.00;100857.94;5036367;28;20025;-47
2021/12/25 09:48:07;;;;;;;20.55;10.40;;;;;;;0.12;100.00;100860.44;5031495;28;20101;-47
2021/12/25 09:50:33;;;;;;;14.95;8.27;;;;;;;0.05;100.00;100857.38;5040756;28;20405;-47
2021/12/25 09:52:58;;;;;;;34.95;14.57;;;;;;;0.04;100.00;100860.09;5041133;28;20029;-48
2021/12/25 09:55:24;;;;;;;15.60;8.75;;;;;;;0.04;100.00;100862.72;5042236;28;20017;-50
2021/12/25 09:57:49;;;;;;;12.95;7.18;;;;;;;0.04;100.00;100857.47;5040305;28;20108;-46
2021/12/25 10:00:22;;;;;;;9.70;6.97;;;;;;;-0.01;100.00;100858.56;5034831;28;20481;-45
2021/12/25 10:02:51;;;;;;;19.80;11.00;;;;;;;-0.03;100.00;100864.84;5021237;28;20048;-45
2021/12/25 10:05:31;;;;;;;14.07;8.02;;;;;;;-0.10;100.00;100866.13;5041550;28;20395;-44
2021/12/25 10:08:07;;;;;;;12.38;7.93;;;;;;;-0.13;100.00;100859.31;5041227;28;20025;-45
2021/12/25 10:10:48;;;;;;;12.75;8.60;;;;;;;-0.10;100.00;100871.38;5040181;28;20375;-45
2021/12/25 10:13:24;;;;;;;19.38;12.18;;;;;;;-0.13;100.00;100882.09;5041268;28;20381;-45
2021/12/25 10:15:52;;;;;;;14.18;7.60;;;;;;;-0.15;100.00;100881.31;5035703;28;20022;-48
2021/12/25 10:18:44;;;;;;;14.77;9.30;;;;;;;-0.18;100.00;100886.78;5021057;28;20458;-47
2021/12/25 10:21:18;;;;;;;16.13;8.32;;;;;;;-0.13;100.00;100897.84;5019063;28;20052;-46
2021/12/25 10:23:44;;;;;;;10.05;6.60;;;;;;;-0.09;100.00;100881.81;5025955;28;20047;-48
2021/12/25 10:26:09;;;;;;;9.35;6.25;;;;;;;-0.03;100.00;100884.06;5037560;28;20508;-44
2021/12/25 10:28:40;;;;;;;11.05;7.60;;;;;;;-0.02;100.00;100883.16;5029913;28;20032;-49
2021/12/25 10:31:09;;;;;;;9.32;6.40;;;;;;;0.03;100.00;100892.53;5036267;28;20112;-45
2021/12/25 10:33:51;;;;;;;8.95;6.25;;;;;;;0.11;100.00;100887.66;5037295;28;20036;-47
2021/12/25 10:36:35;;;;;;;9.93;6.22;;;;;;;0.17;100.00;100885.50;5034548;28;20047;-44
2021/12/25 10:39:06;;;;;;;11.05;6.00;;;;;;;0.18;100.00;100892.44;5020821;28;20022;-45
2021/12/25 10:41:36;;;;;;;13.63;8.05;;;;;;;0.24;100.00;100883.34;5019815;28;20033;-45
2021/12/25 10:44:22;;;;;;;10.55;6.05;;;;;;;0.34;100.00;100889.72;5030403;28;20028;-44
2021/12/25 10:46:51;;;;;;;9.23;5.82;;;;;;;0.37;100.00;100883.41;5037241;28;20033;-48
2021/12/25 10:49:17;;;;;;;8.48;5.45;;;;;;;0.44;100.00;100879.50;5022284;28;20052;-45
2021/12/25 10:51:42;;;;;;;8.02;4.68;;;;;;;0.51;100.00;100890.44;5037120;28;20045;-44
2021/12/25 10:54:11;;;;;;;10.27;6.95;;;;;;;0.56;100.00;100880.50;5039750;28;20097;-45
2021/12/25 10:56:38;;;;;;;11.48;6.38;;;;;;;0.71;100.00;100891.84;5033669;28;20441;-48
2021/12/25 10:59:07;;;;;;;6.90;4.35;;;;;;;0.78;100.00;100881.78;5021357;28;20025;-48
2021/12/25 11:01:49;;;;;;;10.65;6.20;;;;;;;0.80;100.00;100888.66;5021851;28;20382;-44
2021/12/25 11:04:37;;;;;;;7.28;4.43;;;;;;;0.84;100.00;100884.88;5032704;28;20467;-46
2021/12/25 11:07:16;;;;;;;6.82;4.20;;;;;;;0.89;100.00;100887.22;5038130;28;20017;-47
2021/12/25 11:10:05;;;;;;;6.95;3.90;;;;;;;1.03;100.00;100887.16;5036798;28;20567;-48
2021/12/25 11:12:31;;;;;;;6.05;3.55;;;;;;;1.17;100.00;100891.56;5019119;28;20508;-46
2021/12/25 11:15:25;;;;;;;5.22;3.53;;;;;;;1.32;100.00;100887.06;5023426;28;20265;-42
2021/12/25 11:17:53;;;;;;;6.80;3.30;;;;;;;1.46;100.00;100884.38;5030322;28;20033;-45
2021/12/25 11:20:31;;;;;;;6.32;3.15;;;;;;;1.62;100.00;100886.00;5026961;28;20009;-50
2021/12/25 11:22:59;;;;;;;12.20;6.18;;;;;;;1.68;100.00;100882.94;5030030;28;20028;-47
2021/12/25 11:25:27;;;;;;;11.68;5.90;;;;;;;1.78;100.00;100886.66;5027854;28;20381;-45
2021/12/25 11:27:54;;;;;;;14.65;6.63;;;;;;;1.76;100.00;100888.53;5033165;28;20089;-51
2021/12/25 11:30:21;;;;;;;21.70;9.45;;;;;;;1.64;100.00;100892.81;5037206;28;20053;-45
2021/12/25 11:32:48;;;;;;;33.92;15.32;;;;;;;1.47;100.00;100895.75;5034659;28;21250;-50
2021/12/25 11:35:15;;;;;;;20.98;9.68;;;;;;;1.30;100.00;100889.78;5036436;28;20136;-46
2021/12/25 11:37:42;;;;;;;24.67;10.55;;;;;;;1.21;100.00;100890.41;5030901;28;20045;-45
2021/12/25 11:40:10;;;;;;;9.60;4.63;;;;;;;1.06;100.00;100886.13;5039949;28;20058;-46
2021/12/25 11:42:53;;;;;;;7.13;3.88;;;;;;;0.98;100.00;100883.16;5034866;28;20528;-47
2021/12/25 11:45:25;;;;;;;20.75;8.50;;;;;;;0.92;100.00;100874.72;5037503;28;20080;-45
2021/12/25 11:47:52;;;;;;;12.25;5.10;;;;;;;0.89;100.00;100867.00;5018360;28;20516;-45
2021/12/25 11:50:22;;;;;;;10.90;5.07;;;;;;;0.76;100.00;100871.38;5038422;28;20140;-47
2021/12/25 11:53:18;;;;;;;11.90;5.45;;;;;;;0.74;100.00;100863.56;5029852;28;20601;-47
2021/12/25 11:58:38;;;;;;;6.38;3.30;;;;;;;0.72;100.00;100870.72;5032365;28;20095;-45
2021/12/25 12:01:18;;;;;;;11.18;5.30;;;;;;;0.68;100.00;100863.13;5037186;28;20036;-43
2021/12/25 12:03:49;;;;;;;8.70;4.40;;;;;;;0.70;100.00;100862.09;5037583;28;20036;-45
2021/12/25 12:06:14;;;;;;;8.43;4.28;;;;;;;0.75;100.00;100864.44;5038259;28;20029;-44
2021/12/25 12:08:55;;;;;;;8.35;4.10;;;;;;;0.77;100.00;100859.91;5031497;28;20037;-44
2021/12/25 12:11:22;;;;;;;14.02;5.97;;;;;;;0.82;100.00;100870.97;5037951;28;20086;-45
2021/12/25 12:14:12;;;;;;;26.75;13.13;;;;;;;0.85;100.00;100864.66;5038114;28;20060;-45
2021/12/25 12:16:47;;;;;;;10.40;5.40;;;;;;;0.80;100.00;100866.75;5036249;28;20036;-45
2021/12/25 12:19:38;;;;;;;16.15;6.45;;;;;;;0.80;100.00;100866.75;5037028;28;20063;-46